createdAt,value
2022-08-02T00:00:40.348Z,18.00
2022-08-02T00:03:08.576Z,18.00
2022-08-02T00:05:36.876Z,18.00
2022-08-02T00:08:05.345Z,18.00
2022-08-02T00:10:37.065Z,18.10
2022-08-02T00:13:08.318Z,18.00
2022-08-02T00:15:36.600Z,18.00
2022-08-02T00:18:03.680Z,18.10
2022-08-02T00:20:30.772Z,18.10
2022-08-02T00:22:59.544Z,18.10
2022-08-02T00:25:27.457Z,18.00
2022-08-02T00:27:55.503Z,18.00
2022-08-02T00:30:24.310Z,18.00
2022-08-02T00:32:53.699Z,18.00
2022-08-02T00:35:22.475Z,18.00
2022-08-02T00:37:50.251Z,17.90
2022-08-02T00:40:22.006Z,18.00
2022-08-02T00:43:08.439Z,17.90
2022-08-02T00:46:02.598Z,17.90
2022-08-02T00:48:27.935Z,17.90
2022-08-02T00:50:57.117Z,17.90
2022-08-02T00:53:24.184Z,17.90
2022-08-02T00:55:51.166Z,17.90
2022-08-02T00:58:19.751Z,17.90
2022-08-02T01:00:46.700Z,17.90
2022-08-02T01:03:14.473Z,17.90
2022-08-02T01:06:10.226Z,17.80
2022-08-02T01:08:31.789Z,17.80
2022-08-02T01:11:00.095Z,17.80
2022-08-02T01:13:28.444Z,17.80
2022-08-02T01:16:05.219Z,17.80
2022-08-02T01:18:38.536Z,17.90
2022-08-02T01:21:22.616Z,17.80
2022-08-02T01:24:11.849Z,17.80
2022-08-02T01:27:05.303Z,17.80
2022-08-02T01:29:37.842Z,17.80
2022-08-02T01:32:15.487Z,17.80
2022-08-02T01:34:55.859Z,17.80
2022-08-02T01:37:27.666Z,17.80
2022-08-02T01:39:59.210Z,17.70
2022-08-02T01:42:28.286Z,17.80
2022-08-02T01:44:56.956Z,17.80
2022-08-02T01:47:29.418Z,17.70
2022-08-02T01:49:59.471Z,17.70
2022-08-02T01:52:31.425Z,17.70
2022-08-02T01:55:18.556Z,17.70
2022-08-02T01:58:03.257Z,17.70
2022-08-02T02:00:33.652Z,17.60
2022-08-02T02:03:03.352Z,17.60
2022-08-02T02:05:32.267Z,17.50
2022-08-02T02:08:05.839Z,17.50
2022-08-02T02:10:35.949Z,17.50
2022-08-02T02:13:06.666Z,17.30
2022-08-02T02:15:35.532Z,17.40
2022-08-02T02:18:13.115Z,17.40
2022-08-02T02:20:43.019Z,17.30
2022-08-02T02:23:13.362Z,17.30
2022-08-02T02:25:46.593Z,17.30
2022-08-02T02:28:30.407Z,17.30
2022-08-02T02:31:08.310Z,17.30
2022-08-02T02:33:40.610Z,17.30
2022-08-02T02:36:10.814Z,17.30
2022-08-02T02:38:40.158Z,17.30
2022-08-02T02:41:07.802Z,17.30
2022-08-02T02:43:37.799Z,17.40
2022-08-02T02:46:06.684Z,17.40
2022-08-02T02:48:35.433Z,17.40
2022-08-02T02:51:13.860Z,17.40
2022-08-02T02:54:30.546Z,17.40
2022-08-02T02:56:33.657Z,17.40
2022-08-02T02:59:01.588Z,17.50
2022-08-02T03:01:36.063Z,17.50
2022-08-02T03:04:19.098Z,17.50
2022-08-02T03:06:48.553Z,17.50
2022-08-02T03:09:16.272Z,17.50
2022-08-02T03:11:43.660Z,17.60
2022-08-02T03:14:12.551Z,17.60
2022-08-02T03:16:48.252Z,17.60
2022-08-02T03:19:15.861Z,17.50
2022-08-02T03:21:43.785Z,17.50
2022-08-02T03:24:11.404Z,17.50
2022-08-02T03:26:38.564Z,17.50
2022-08-02T03:29:10.219Z,17.50
2022-08-02T03:31:41.605Z,17.50
2022-08-02T03:34:09.239Z,17.50
2022-08-02T03:36:37.306Z,17.50
2022-08-02T03:39:07.232Z,17.40
2022-08-02T03:41:37.239Z,17.40
2022-08-02T03:44:06.610Z,17.40
2022-08-02T03:46:34.792Z,17.40
2022-08-02T03:49:02.523Z,17.30
2022-08-02T03:51:30.548Z,17.20
2022-08-02T03:53:58.473Z,17.30
2022-08-02T03:56:25.827Z,17.30
2022-08-02T03:59:06.459Z,17.20
2022-08-02T04:01:33.361Z,17.30
2022-08-02T04:04:00.904Z,17.20
2022-08-02T04:06:28.557Z,17.30
2022-08-02T04:08:56.561Z,17.20
2022-08-02T04:11:33.523Z,17.30
2022-08-02T04:14:07.718Z,17.30
2022-08-02T04:16:45.616Z,17.30
2022-08-02T04:19:39.914Z,17.30
2022-08-02T04:22:16.558Z,17.30
2022-08-02T04:24:50.936Z,17.40
2022-08-02T04:28:15.404Z,17.40
2022-08-02T04:30:09.035Z,17.50
2022-08-02T04:32:36.358Z,17.50
2022-08-02T04:35:19.825Z,17.60
2022-08-02T04:38:08.188Z,17.60
2022-08-02T04:40:36.116Z,17.70
2022-08-02T04:43:02.915Z,17.70
2022-08-02T04:45:31.790Z,17.80
2022-08-02T04:48:06.470Z,17.90
2022-08-02T04:50:34.818Z,17.90
2022-08-02T04:53:02.695Z,17.90
2022-08-02T04:55:30.243Z,18.00
2022-08-02T04:57:58.902Z,18.10
2022-08-02T05:00:27.672Z,18.10
2022-08-02T05:02:57.131Z,18.10
2022-08-02T05:05:24.308Z,18.10
2022-08-02T05:07:51.441Z,18.20
2022-08-02T05:10:18.936Z,18.30
2022-08-02T05:12:45.734Z,18.20
2022-08-02T05:15:14.284Z,18.30
2022-08-02T05:17:47.449Z,18.30
2022-08-02T05:20:16.450Z,18.40
2022-08-02T05:22:43.648Z,18.50
2022-08-02T05:25:10.838Z,18.60
2022-08-02T05:27:37.713Z,18.70
2022-08-02T05:30:06.071Z,18.70
2022-08-02T05:32:32.911Z,18.80
2022-08-02T05:35:01.985Z,18.80
2022-08-02T05:37:32.131Z,18.90
2022-08-02T05:40:01.140Z,19.00
2022-08-02T05:42:31.404Z,19.00
2022-08-02T05:44:59.329Z,19.00
2022-08-02T05:47:26.179Z,19.10
2022-08-02T05:49:53.619Z,19.20
2022-08-02T05:52:24.548Z,19.30
2022-08-02T05:55:09.744Z,19.40
2022-08-02T05:57:55.969Z,19.50
2022-08-02T06:00:22.806Z,19.60
2022-08-02T06:03:07.645Z,19.80
2022-08-02T06:05:39.701Z,20.00
2022-08-02T06:08:10.781Z,20.20
2022-08-02T06:10:40.027Z,20.40
2022-08-02T06:13:14.600Z,20.60
2022-08-02T06:15:53.292Z,20.70
2022-08-02T06:18:28.457Z,20.70
2022-08-02T06:22:33.566Z,20.70
2022-08-02T06:23:58.960Z,20.90
2022-08-02T06:26:27.748Z,21.10
2022-08-02T06:28:56.317Z,21.00
2022-08-02T06:31:23.418Z,21.20
2022-08-02T06:33:50.383Z,21.10
2022-08-02T06:36:40.472Z,21.20
2022-08-02T06:39:20.682Z,21.30
2022-08-02T06:41:49.911Z,21.40
2022-08-02T06:47:13.117Z,21.70
2022-08-02T06:49:52.708Z,21.70
2022-08-02T06:52:30.975Z,21.70
2022-08-02T06:54:59.864Z,21.50
2022-08-02T06:57:30.007Z,21.60
2022-08-02T06:59:56.852Z,21.80
2022-08-02T07:02:24.002Z,21.90
2022-08-02T07:04:50.981Z,21.90
2022-08-02T07:07:17.758Z,22.00
2022-08-02T07:09:56.887Z,22.10
2022-08-02T07:12:32.679Z,22.30
2022-08-02T07:15:02.256Z,22.30
2022-08-02T07:17:30.267Z,22.40
2022-08-02T07:19:57.696Z,22.50
2022-08-02T07:22:27.030Z,22.50
2022-08-02T07:24:56.439Z,22.60
2022-08-02T07:27:24.256Z,22.60
2022-08-02T07:29:51.078Z,22.60
2022-08-02T07:32:22.855Z,22.70
2022-08-02T07:34:52.595Z,22.90
2022-08-02T07:37:54.090Z,23.00
2022-08-02T07:40:14.147Z,23.00
2022-08-02T07:42:45.280Z,23.00
2022-08-02T07:45:13.632Z,23.20
2022-08-02T07:47:42.630Z,23.20
2022-08-02T07:50:11.870Z,23.20
2022-08-02T07:52:39.843Z,23.20
2022-08-02T07:55:07.090Z,23.30
2022-08-02T07:57:33.952Z,23.40
2022-08-02T08:00:00.727Z,23.40
2022-08-02T08:02:27.465Z,23.50
2022-08-02T08:04:54.234Z,23.60
2022-08-02T08:07:21.200Z,23.60
2022-08-02T08:09:50.734Z,23.50
2022-08-02T08:12:23.364Z,23.60
2022-08-02T08:14:50.130Z,23.50
2022-08-02T08:17:17.394Z,23.60
2022-08-02T08:19:51.193Z,23.60
2022-08-02T08:22:22.228Z,23.80
2022-08-02T08:24:49.216Z,23.80
2022-08-02T08:27:22.672Z,23.90
2022-08-02T08:29:49.656Z,24.10
2022-08-02T08:32:17.652Z,24.10
2022-08-02T08:34:49.229Z,24.00
2022-08-02T08:37:18.098Z,24.10
2022-08-02T08:39:56.878Z,24.20
2022-08-02T08:42:27.044Z,24.20
2022-08-02T08:44:56.788Z,24.30
2022-08-02T08:47:35.181Z,24.20
2022-08-02T08:50:34.381Z,24.00
2022-08-02T08:53:07.033Z,24.00
2022-08-02T08:55:35.984Z,24.00
2022-08-02T08:58:05.219Z,24.10
2022-08-02T09:00:33.661Z,24.30
2022-08-02T09:03:04.460Z,24.40
2022-08-02T09:05:31.779Z,24.60
2022-08-02T09:07:58.467Z,24.70
2022-08-02T09:10:41.855Z,24.80
2022-08-02T09:13:37.897Z,24.80
2022-08-02T09:16:12.674Z,24.90
2022-08-02T09:18:47.445Z,25.20
2022-08-02T09:21:17.505Z,25.20
2022-08-02T09:23:46.586Z,25.30
2022-08-02T09:26:24.220Z,25.40
2022-08-02T09:28:59.160Z,25.50
2022-08-02T09:31:26.565Z,25.70
2022-08-02T09:33:54.888Z,25.70
2022-08-02T09:36:22.466Z,25.80
2022-08-02T09:39:03.907Z,25.90
2022-08-02T09:41:33.580Z,25.90
2022-08-02T09:44:04.744Z,25.80
2022-08-02T09:46:37.311Z,25.90
2022-08-02T09:49:13.708Z,26.00
2022-08-02T09:51:49.934Z,25.80
2022-08-02T09:54:25.199Z,25.10
2022-08-02T09:56:57.903Z,24.80
2022-08-02T09:59:26.375Z,24.80
2022-08-02T10:02:01.883Z,25.00
2022-08-02T10:04:53.349Z,25.20
2022-08-02T10:07:22.729Z,25.30
2022-08-02T10:09:51.698Z,25.10
2022-08-02T10:12:20.876Z,25.00
2022-08-02T10:14:50.633Z,24.60
2022-08-02T10:17:18.412Z,24.80
2022-08-02T10:20:02.257Z,25.00
2022-08-02T10:22:33.335Z,25.20
2022-08-02T10:25:03.558Z,25.40
2022-08-02T10:27:48.865Z,25.60
2022-08-02T10:30:18.725Z,25.90
2022-08-02T10:32:47.227Z,26.10
2022-08-02T10:35:19.862Z,26.20
2022-08-02T10:38:01.173Z,26.30
2022-08-02T10:40:46.593Z,26.40
2022-08-02T10:43:34.127Z,26.60
2022-08-02T10:46:23.451Z,26.70
2022-08-02T10:52:08.682Z,25.90
2022-08-02T10:54:39.879Z,25.50
2022-08-02T10:57:19.117Z,25.60
2022-08-02T10:59:46.957Z,25.90
2022-08-02T11:02:14.659Z,26.30
2022-08-02T11:04:41.497Z,26.60
2022-08-02T11:07:21.984Z,26.80
2022-08-02T11:09:50.705Z,26.70
2022-08-02T11:12:21.588Z,26.40
2022-08-02T11:15:07.712Z,26.20
2022-08-02T11:17:54.748Z,26.40
2022-08-02T11:20:23.427Z,26.70
2022-08-02T11:22:53.399Z,26.90
2022-08-02T11:25:23.251Z,27.10
2022-08-02T11:27:58.721Z,27.40
2022-08-02T11:30:27.397Z,27.60
2022-08-02T11:32:59.202Z,27.80
2022-08-02T11:35:38.161Z,28.00
2022-08-02T11:38:19.447Z,28.00
2022-08-02T11:40:47.553Z,28.10
2022-08-02T11:43:23.551Z,28.10
2022-08-02T11:45:52.384Z,28.10
2022-08-02T11:48:37.043Z,28.00
2022-08-02T11:51:09.796Z,27.70
2022-08-02T11:53:58.195Z,27.60
2022-08-02T11:56:31.010Z,27.80
2022-08-02T11:59:13.022Z,27.90
2022-08-02T12:01:46.000Z,27.60
2022-08-02T12:04:18.325Z,27.80
2022-08-02T12:06:53.350Z,28.00
2022-08-02T12:09:20.251Z,28.20
2022-08-02T12:11:51.406Z,28.50
2022-08-02T12:14:18.438Z,28.50
2022-08-02T12:17:04.346Z,28.70
2022-08-02T12:19:31.140Z,28.80
2022-08-02T12:22:27.262Z,28.80
2022-08-02T12:24:56.221Z,28.80
2022-08-02T12:27:33.104Z,28.80
2022-08-02T12:30:02.511Z,28.60
2022-08-02T12:32:29.330Z,28.20
2022-08-02T12:35:03.575Z,27.80
2022-08-02T12:37:30.606Z,27.80
2022-08-02T12:39:57.651Z,27.90
2022-08-02T12:42:24.576Z,27.80
2022-08-02T12:44:59.539Z,27.80
2022-08-02T12:47:31.345Z,27.80
2022-08-02T12:50:13.401Z,28.00
2022-08-02T12:52:40.179Z,28.10
2022-08-02T12:56:00.753Z,28.20
2022-08-02T12:58:27.592Z,28.10
2022-08-02T13:00:58.973Z,28.20
2022-08-02T13:04:09.110Z,28.10
2022-08-02T13:09:01.892Z,27.50
2022-08-02T13:11:28.855Z,27.70
2022-08-02T13:13:55.887Z,27.80
2022-08-02T13:16:31.084Z,27.90
2022-08-02T13:18:58.592Z,28.00
2022-08-02T13:21:40.002Z,28.00
2022-08-02T13:24:23.298Z,28.10
2022-08-02T13:26:55.704Z,28.10
2022-08-02T13:29:22.765Z,28.30
2022-08-02T13:31:49.727Z,28.40
2022-08-02T13:34:16.773Z,28.50
2022-08-02T13:36:44.843Z,28.60
2022-08-02T13:39:12.015Z,28.60
2022-08-02T13:41:38.916Z,28.60
2022-08-02T13:44:10.412Z,28.80
2022-08-02T13:46:45.681Z,28.90
2022-08-02T13:49:19.491Z,29.20
2022-08-02T13:51:48.143Z,29.40
2022-08-02T13:54:15.791Z,29.60
2022-08-02T13:56:42.786Z,29.80
2022-08-02T13:59:54.779Z,29.60
2022-08-02T14:01:58.285Z,29.30
2022-08-02T14:04:25.391Z,29.00
2022-08-02T14:06:52.454Z,29.00
2022-08-02T14:09:19.216Z,29.20
2022-08-02T14:11:46.507Z,29.30
2022-08-02T14:14:16.276Z,29.30
2022-08-02T14:16:46.633Z,29.20
2022-08-02T14:19:15.596Z,29.10
2022-08-02T14:21:47.132Z,29.30
2022-08-02T14:24:18.483Z,29.40
2022-08-02T14:26:46.010Z,29.50
2022-08-02T14:29:14.012Z,29.40
2022-08-02T14:31:44.283Z,29.40
2022-08-02T14:34:13.073Z,29.60
2022-08-02T14:36:40.043Z,29.70
2022-08-02T14:39:06.895Z,29.90
2022-08-02T14:41:59.880Z,30.00
2022-08-02T14:44:23.311Z,30.10
2022-08-02T14:46:51.999Z,30.10
2022-08-02T14:49:25.597Z,30.00
2022-08-02T14:51:56.400Z,30.00
2022-08-02T14:54:30.617Z,30.00
2022-08-02T14:57:02.512Z,30.00
2022-08-02T14:59:30.135Z,30.10
2022-08-02T15:01:57.325Z,30.10
2022-08-02T15:04:25.312Z,30.20
2022-08-02T15:06:52.172Z,30.20
2022-08-02T15:09:19.884Z,30.20
2022-08-02T15:11:49.160Z,30.30
2022-08-02T15:14:22.030Z,30.20
2022-08-02T15:16:58.354Z,30.20
2022-08-02T15:19:51.253Z,30.10
2022-08-02T15:22:15.858Z,29.90
2022-08-02T15:24:44.793Z,29.80
2022-08-02T15:27:13.714Z,29.70
2022-08-02T15:29:41.480Z,29.50
2022-08-02T15:32:08.387Z,29.40
2022-08-02T15:34:35.263Z,29.40
2022-08-02T15:37:02.742Z,29.40
2022-08-02T15:39:29.744Z,29.30
2022-08-02T15:41:56.721Z,29.20
2022-08-02T15:44:24.777Z,29.20
2022-08-02T15:46:53.164Z,29.30
2022-08-02T15:49:23.519Z,29.40
2022-08-02T15:51:52.028Z,29.60
2022-08-02T15:54:19.206Z,29.70
2022-08-02T15:56:46.028Z,29.90
2022-08-02T15:59:12.909Z,30.00
2022-08-02T16:01:43.480Z,30.10
2022-08-02T16:04:14.184Z,30.50
2022-08-02T16:06:40.983Z,31.00
2022-08-02T16:09:07.871Z,31.40
2022-08-02T16:11:34.768Z,31.80
2022-08-02T16:14:01.536Z,32.00
2022-08-02T16:16:31.193Z,32.30
2022-08-02T16:18:58.435Z,32.40
2022-08-02T16:21:25.902Z,32.80
2022-08-02T16:23:59.125Z,32.80
2022-08-02T16:26:29.884Z,32.80
2022-08-02T16:28:57.547Z,32.90
2022-08-02T16:31:24.630Z,33.00
2022-08-02T16:33:56.545Z,33.00
2022-08-02T16:36:25.015Z,33.30
2022-08-02T16:38:53.215Z,33.60
2022-08-02T16:41:20.440Z,33.80
2022-08-02T16:43:47.412Z,33.80
2022-08-02T16:46:14.309Z,33.70
2022-08-02T16:48:41.829Z,33.60
2022-08-02T16:51:19.181Z,33.50
2022-08-02T16:54:00.521Z,33.40
2022-08-02T16:56:30.771Z,33.20
2022-08-02T16:58:59.773Z,33.00
2022-08-02T17:01:28.249Z,32.70
2022-08-02T17:04:15.630Z,32.50
2022-08-02T17:06:47.782Z,32.30
2022-08-02T17:10:02.437Z,31.70
2022-08-02T17:12:09.989Z,31.80
2022-08-02T17:14:41.994Z,31.90
2022-08-02T17:17:22.377Z,32.00
2022-08-02T17:20:02.283Z,32.10
2022-08-02T17:22:29.297Z,32.10
2022-08-02T17:24:56.505Z,31.90
2022-08-02T17:27:26.086Z,32.00
2022-08-02T17:29:53.654Z,31.90
2022-08-02T17:32:20.602Z,31.80
2022-08-02T17:34:56.542Z,31.70
2022-08-02T17:37:28.320Z,31.60
2022-08-02T17:39:56.998Z,31.60
2022-08-02T17:42:25.044Z,31.70
2022-08-02T17:44:53.795Z,31.60
2022-08-02T17:50:08.866Z,31.10
2022-08-02T17:52:51.107Z,30.70
2022-08-02T17:55:20.003Z,30.50
2022-08-02T17:57:58.262Z,30.80
2022-08-02T18:00:31.978Z,31.10
2022-08-02T18:03:01.993Z,31.40
2022-08-02T18:05:39.384Z,31.50
2022-08-02T18:08:08.818Z,31.50
2022-08-02T18:10:35.925Z,31.20
2022-08-02T18:13:05.082Z,30.90
2022-08-02T18:15:32.595Z,30.60
2022-08-02T18:18:00.436Z,30.30
2022-08-02T18:20:27.164Z,30.00
2022-08-02T18:22:58.399Z,29.70
2022-08-02T18:25:37.493Z,29.40
2022-08-02T18:28:11.191Z,29.10
2022-08-02T18:30:37.955Z,28.70
2022-08-02T18:33:58.543Z,28.50
2022-08-02T18:35:55.314Z,28.30
2022-08-02T18:38:26.807Z,28.10
2022-08-02T18:40:55.169Z,27.80
2022-08-02T18:43:25.569Z,27.60
2022-08-02T18:46:05.580Z,27.40
2022-08-02T18:48:44.286Z,27.10
2022-08-02T18:51:13.672Z,26.80
2022-08-02T18:53:41.642Z,26.60
2022-08-02T18:56:19.723Z,26.40
2022-08-02T18:58:48.739Z,26.20
2022-08-02T19:01:21.810Z,26.00
2022-08-02T19:04:00.533Z,25.80
2022-08-02T19:06:29.067Z,25.70
2022-08-02T19:09:06.067Z,25.50
2022-08-02T19:11:48.071Z,25.30
2022-08-02T19:14:23.933Z,25.20
2022-08-02T19:16:54.351Z,25.10
2022-08-02T19:19:22.087Z,25.00
2022-08-02T19:22:15.809Z,24.90
2022-08-02T19:24:37.033Z,24.80
2022-08-02T19:27:13.595Z,24.60
2022-08-02T19:29:42.939Z,24.50
2022-08-02T19:32:42.347Z,24.30
2022-08-02T19:35:19.251Z,24.20
2022-08-02T19:37:55.888Z,24.10
2022-08-02T19:40:27.534Z,24.00
2022-08-02T19:45:49.718Z,23.90
2022-08-02T19:48:24.532Z,23.90
2022-08-02T19:50:56.230Z,23.70
2022-08-02T19:53:29.056Z,23.60
2022-08-02T19:56:00.035Z,23.50
2022-08-02T19:58:32.397Z,23.40
2022-08-02T20:00:59.628Z,23.40
2022-08-02T20:03:50.796Z,23.30
2022-08-02T20:06:13.892Z,23.20
2022-08-02T20:08:52.023Z,23.10
2022-08-02T20:11:23.291Z,23.10
2022-08-02T20:13:52.417Z,23.10
2022-08-02T20:16:27.414Z,23.10
2022-08-02T20:18:55.936Z,23.00
2022-08-02T20:21:36.210Z,22.90
2022-08-02T20:24:06.517Z,22.80
2022-08-02T20:26:35.247Z,22.70
2022-08-02T20:29:04.144Z,22.60
2022-08-02T20:31:31.195Z,22.60
2022-08-02T20:33:58.245Z,22.50
2022-08-02T20:36:26.775Z,22.40
2022-08-02T20:38:54.791Z,22.40
2022-08-02T20:41:23.264Z,22.30
2022-08-02T20:43:50.665Z,22.30
2022-08-02T20:46:18.434Z,22.20
2022-08-02T20:48:45.208Z,22.20
2022-08-02T20:51:14.049Z,22.10
2022-08-02T20:53:54.914Z,22.10
2022-08-02T20:56:22.186Z,22.00
2022-08-02T20:58:52.136Z,22.00
2022-08-02T21:01:21.288Z,22.00
2022-08-02T21:03:58.753Z,21.90
2022-08-02T21:06:28.169Z,21.80
2022-08-02T21:08:56.008Z,21.80
2022-08-02T21:11:25.223Z,21.80
2022-08-02T21:14:07.734Z,21.70
2022-08-02T21:16:36.519Z,21.70
2022-08-02T21:19:07.931Z,21.60
2022-08-02T21:21:35.040Z,21.60
2022-08-02T21:24:01.961Z,21.60
2022-08-02T21:26:31.024Z,21.50
2022-08-02T21:29:03.919Z,21.30
2022-08-02T21:31:33.368Z,21.30
2022-08-02T21:34:03.022Z,21.30
2022-08-02T21:36:33.555Z,21.20
2022-08-02T21:39:09.167Z,21.30
2022-08-02T21:41:46.709Z,21.20
2022-08-02T21:44:22.188Z,21.20
2022-08-02T21:46:51.190Z,21.10
2022-08-02T21:49:19.975Z,21.10
2022-08-02T21:51:49.327Z,21.00
2022-08-02T21:54:20.174Z,21.00
2022-08-02T21:56:50.105Z,21.00
2022-08-02T21:59:25.898Z,20.90
2022-08-02T22:01:57.742Z,20.90
2022-08-02T22:04:26.206Z,20.90
2022-08-02T22:06:56.634Z,20.80
2022-08-02T22:09:44.206Z,20.80
2022-08-02T22:12:17.590Z,20.80
2022-08-02T22:14:49.398Z,20.70
2022-08-02T22:17:50.570Z,20.70
2022-08-02T22:20:12.318Z,20.60
2022-08-02T22:22:39.639Z,20.50
2022-08-02T22:25:10.075Z,20.50
2022-08-02T22:28:34.823Z,20.40
2022-08-02T22:30:34.969Z,20.40
2022-08-02T22:33:22.028Z,20.30
2022-08-02T22:36:00.842Z,20.30
2022-08-02T22:38:28.586Z,20.20
2022-08-02T22:40:55.511Z,20.20
2022-08-02T22:43:23.152Z,20.20
2022-08-02T22:45:50.822Z,20.10
2022-08-02T22:48:17.644Z,20.00
2022-08-02T22:50:44.476Z,20.00
2022-08-02T22:53:12.397Z,20.00
2022-08-02T22:58:26.445Z,19.90
2022-08-02T22:58:49.404Z,31.40
2022-08-02T22:59:06.357Z,23.90
2022-08-02T22:59:10.013Z,19.90
2022-08-02T23:00:53.560Z,19.80
2022-08-02T23:03:20.372Z,19.70
2022-08-02T23:05:48.511Z,19.70
2022-08-02T23:08:15.955Z,19.60
2022-08-02T23:10:43.135Z,19.60
2022-08-02T23:13:10.324Z,19.50
2022-08-02T23:16:00.704Z,19.50
2022-08-02T23:18:47.105Z,19.40
2022-08-02T23:21:45.512Z,19.40
2022-08-02T23:24:02.726Z,19.30
2022-08-02T23:26:29.764Z,19.30
2022-08-02T23:28:57.961Z,19.30
2022-08-02T23:31:38.405Z,19.30
2022-08-02T23:34:05.795Z,19.20
2022-08-02T23:36:33.988Z,19.10
2022-08-02T23:39:01.764Z,19.00
2022-08-02T23:41:29.316Z,19.00
2022-08-02T23:44:12.504Z,18.90
2022-08-02T23:46:47.183Z,18.90
2022-08-02T23:49:17.264Z,18.80
2022-08-02T23:51:44.225Z,18.80
2022-08-02T23:54:12.187Z,18.70
2022-08-02T23:56:41.059Z,18.70
2022-08-02T23:59:08.788Z,18.80
